EJA248 KPWM-CYYZ
Flight info
| Callsign | EJA248 |
|---|---|
| Flight time | N/A |
| Altitude | 43000 |
| Route | HSKEL3 CAM Q822 DUVEP OMTED·RNAVZ/26 |
| Aircraft | C700/M-SBDGHM1RWXY/LB2 |
Departure
| Time | N/A |
|---|---|
| Airport | Portland International Jetport (KPWM) |
Arrival
| Time | 2026-05-08 02:00 |
|---|---|
| Airport | Toronto Pearson International Airport (CYYZ) |
| Time | Latitude | Longitude | Altitude | Speed | Heading |
|---|---|---|---|---|---|
| 2026-05-08 01:43 | 43.49706 | -80.47526 | 6003 ft | 225 kts | 22° |
| 2026-05-08 01:43 | 43.50865 | -80.46085 | 5999 ft | 231 kts | 47° |
| 2026-05-08 01:44 | 43.51823 | -80.44293 | 5996 ft | 232 kts | 50° |
| 2026-05-08 01:44 | 43.52774 | -80.42466 | 5997 ft | 231 kts | 50° |
| 2026-05-08 01:44 | 43.53715 | -80.40660 | 6000 ft | 232 kts | 50° |
| 2026-05-08 01:44 | 43.54651 | -80.38857 | 5997 ft | 231 kts | 50° |
| 2026-05-08 01:45 | 43.55576 | -80.37079 | 6000 ft | 231 kts | 50° |
| 2026-05-08 01:45 | 43.56518 | -80.35271 | 6002 ft | 231 kts | 50° |
| 2026-05-08 01:45 | 43.57448 | -80.33488 | 6001 ft | 231 kts | 50° |
| 2026-05-08 01:45 | 43.58380 | -80.31698 | 6001 ft | 230 kts | 50° |
| 2026-05-08 01:46 | 43.59322 | -80.29894 | 6003 ft | 231 kts | 50° |
| 2026-05-08 01:46 | 43.60262 | -80.28102 | 6004 ft | 230 kts | 50° |
| 2026-05-08 01:46 | 43.61197 | -80.26325 | 6005 ft | 230 kts | 50° |
| 2026-05-08 01:46 | 43.62145 | -80.24531 | 6006 ft | 230 kts | 50° |
| 2026-05-08 01:47 | 43.63081 | -80.22762 | 6010 ft | 230 kts | 50° |
| 2026-05-08 01:47 | 43.64022 | -80.20986 | 6012 ft | 230 kts | 50° |
| 2026-05-08 01:47 | 43.65031 | -80.19096 | 6027 ft | 262 kts | 50° |
| 2026-05-08 01:48 | 43.67295 | -80.14926 | 6024 ft | 279 kts | 50° |
| 2026-05-08 01:48 | 43.68470 | -80.12776 | 6023 ft | 281 kts | 50° |
| 2026-05-08 01:48 | 43.69655 | -80.10609 | 6030 ft | 281 kts | 50° |
| 2026-05-08 01:48 | 43.70795 | -80.08519 | 5923 ft | 275 kts | 50° |
| 2026-05-08 01:49 | 43.71966 | -80.06386 | 5724 ft | 279 kts | 50° |
| 2026-05-08 01:49 | 43.73139 | -80.04260 | 5433 ft | 278 kts | 50° |
| 2026-05-08 01:49 | 43.74311 | -80.02144 | 5130 ft | 276 kts | 50° |
| 2026-05-08 01:49 | 43.75462 | -80.00074 | 5011 ft | 270 kts | 50° |
| 2026-05-08 01:50 | 43.76641 | -79.97964 | 5013 ft | 274 kts | 50° |
| 2026-05-08 01:50 | 43.77810 | -79.95880 | 5014 ft | 274 kts | 50° |
| 2026-05-08 01:50 | 43.78981 | -79.93798 | 5015 ft | 274 kts | 50° |
| 2026-05-08 01:50 | 43.80153 | -79.91721 | 5012 ft | 274 kts | 50° |
| 2026-05-08 01:51 | 43.81322 | -79.89653 | 5009 ft | 274 kts | 50° |
| 2026-05-08 01:51 | 43.82487 | -79.87588 | 5010 ft | 274 kts | 51° |
| 2026-05-08 01:51 | 43.83302 | -79.85178 | 5001 ft | 276 kts | 74° |
| 2026-05-08 01:51 | 43.83702 | -79.82538 | 5000 ft | 277 kts | 79° |
| 2026-05-08 01:52 | 43.84031 | -79.79917 | 5005 ft | 277 kts | 80° |
| 2026-05-08 01:52 | 43.84348 | -79.77330 | 5003 ft | 277 kts | 80° |
| 2026-05-08 01:52 | 43.84672 | -79.74656 | 5008 ft | 277 kts | 80° |
| 2026-05-08 01:52 | 43.84988 | -79.72055 | 5006 ft | 277 kts | 80° |
| 2026-05-08 01:53 | 43.85305 | -79.69449 | 5006 ft | 277 kts | 80° |
| 2026-05-08 01:53 | 43.85630 | -79.66783 | 5009 ft | 277 kts | 80° |
| 2026-05-08 01:53 | 43.85950 | -79.64166 | 5008 ft | 277 kts | 80° |
| 2026-05-08 01:53 | 43.86274 | -79.61518 | 5007 ft | 277 kts | 80° |
| 2026-05-08 01:54 | 43.86593 | -79.58920 | 5006 ft | 277 kts | 80° |
| 2026-05-08 01:54 | 43.86919 | -79.56265 | 5007 ft | 277 kts | 80° |
| 2026-05-08 01:54 | 43.87006 | -79.53646 | 4982 ft | 272 kts | 99° |
| 2026-05-08 01:54 | 43.86444 | -79.51183 | 4185 ft | 265 kts | 121° |
| 2026-05-08 01:55 | 43.85185 | -79.49536 | 3874 ft | 248 kts | 152° |
| 2026-05-08 01:55 | 43.83565 | -79.48956 | 3318 ft | 236 kts | 184° |
| 2026-05-08 01:55 | 43.82042 | -79.49479 | 3038 ft | 219 kts | 201° |
| 2026-05-08 01:55 | 43.80690 | -79.50178 | 2990 ft | 198 kts | 202° |
| 2026-05-08 01:56 | 43.79484 | -79.50807 | 3009 ft | 180 kts | 203° |
| 2026-05-08 01:56 | 43.78316 | -79.51380 | 3009 ft | 177 kts | 200° |
| 2026-05-08 01:56 | 43.77232 | -79.52137 | 2889 ft | 173 kts | 223° |
| 2026-05-08 01:56 | 43.76420 | -79.53299 | 2718 ft | 164 kts | 228° |
| 2026-05-08 01:57 | 43.75595 | -79.54489 | 2451 ft | 169 kts | 228° |
| 2026-05-08 01:57 | 43.74790 | -79.55678 | 2211 ft | 169 kts | 228° |
| 2026-05-08 01:57 | 43.73980 | -79.56856 | 1965 ft | 164 kts | 228° |
| 2026-05-08 01:57 | 43.73221 | -79.57958 | 1761 ft | 150 kts | 228° |
| 2026-05-08 01:58 | 43.72542 | -79.58944 | 1526 ft | 133 kts | 228° |
| 2026-05-08 01:58 | 43.71943 | -79.59823 | 1347 ft | 121 kts | 229° |
| 2026-05-08 01:58 | 43.71372 | -79.60655 | 1170 ft | 117 kts | 228° |
| 2026-05-08 01:58 | 43.70814 | -79.61466 | 1015 ft | 115 kts | 228° |
| 2026-05-08 01:59 | 43.70259 | -79.62274 | 853 ft | 115 kts | 228° |
| 2026-05-08 01:59 | 43.69711 | -79.63071 | 704 ft | 116 kts | 228° |
| 2026-05-08 01:59 | 43.69160 | -79.63873 | 579 ft | 107 kts | 227° |
| 2026-05-08 01:59 | 43.68699 | -79.64541 | 556 ft | 87 kts | 228° |
| 2026-05-08 02:00 | 43.68328 | -79.65082 | 560 ft | 69 kts | 227° |
| 2026-05-08 02:00 | 43.68108 | -79.65402 | 564 ft | 38 kts | 227° |
| 2026-05-08 02:00 | 43.67942 | -79.65666 | 562 ft | 34 kts | 237° |
| 2026-05-08 02:00 | 43.67868 | -79.65958 | 565 ft | 20 kts | 258° |
| 2026-05-08 02:01 | 43.67851 | -79.66064 | 565 ft | 0 kts | 255° |
| 2026-05-08 02:02 | 43.67850 | -79.66079 | 569 ft | 6 kts | 274° |
| 2026-05-08 02:02 | 43.67893 | -79.66044 | 565 ft | 17 kts | 50° |
| 2026-05-08 02:02 | 43.68003 | -79.65882 | 563 ft | 27 kts | 45° |
| 2026-05-08 02:02 | 43.68141 | -79.65683 | 554 ft | 30 kts | 46° |
| 2026-05-08 02:03 | 43.68286 | -79.65472 | 555 ft | 31 kts | 47° |
| 2026-05-08 02:03 | 43.68429 | -79.65287 | 562 ft | 24 kts | 22° |
| 2026-05-08 02:03 | 43.68586 | -79.65239 | 557 ft | 22 kts | 12° |
| 2026-05-08 02:03 | 43.68709 | -79.65106 | 554 ft | 24 kts | 41° |
| 2026-05-08 02:04 | 43.68840 | -79.64949 | 558 ft | 25 kts | 46° |
| 2026-05-08 02:04 | 43.68952 | -79.64800 | 557 ft | 6 kts | 2° |
| 2026-05-08 02:04 | 43.68991 | -79.64837 | 560 ft | 8 kts | 316° |
| 2026-05-08 02:04 | 43.69044 | -79.64907 | 558 ft | 13 kts | 316° |
| 2026-05-08 02:05 | 43.69112 | -79.64994 | 560 ft | 13 kts | 316° |
| 2026-05-08 02:05 | 43.69138 | -79.64962 | 561 ft | 7 kts | 63° |
| 2026-05-08 02:05 | 43.69132 | -79.64908 | 564 ft | 0 kts | 138° |